createdAt,value
2023-03-06T00:01:08.760Z,0.99
2023-03-06T00:03:36.741Z,1.04
2023-03-06T00:06:05.022Z,1.08
2023-03-06T00:08:32.943Z,0.93
2023-03-06T00:11:02.124Z,0.92
2023-03-06T00:13:31.157Z,0.95
2023-03-06T00:16:00.238Z,1.01
2023-03-06T00:18:28.195Z,1.06
2023-03-06T00:20:56.087Z,0.97
2023-03-06T00:23:23.925Z,0.94
2023-03-06T00:25:51.963Z,0.94
2023-03-06T00:28:21.287Z,0.87
2023-03-06T00:30:49.024Z,0.89
2023-03-06T00:33:16.834Z,0.77
2023-03-06T00:35:44.718Z,0.80
2023-03-06T00:38:13.179Z,0.64
2023-03-06T00:40:41.500Z,0.49
2023-03-06T00:43:09.411Z,0.59
2023-03-06T00:45:38.860Z,0.56
2023-03-06T00:48:06.989Z,0.54
2023-03-06T00:50:35.220Z,0.63
2023-03-06T00:53:03.124Z,0.65
2023-03-06T00:55:32.876Z,0.65
2023-03-06T00:58:00.934Z,0.47
2023-03-06T01:00:29.260Z,0.46
2023-03-06T01:02:58.462Z,0.47
2023-03-06T01:05:26.485Z,0.50
2023-03-06T01:07:54.444Z,0.57
2023-03-06T01:10:22.542Z,0.45
2023-03-06T01:12:50.405Z,0.61
2023-03-06T01:15:19.416Z,0.58
2023-03-06T01:17:47.318Z,0.64
2023-03-06T01:20:18.180Z,0.50
2023-03-06T01:22:46.006Z,0.55
2023-03-06T01:25:14.086Z,0.46
2023-03-06T01:27:41.902Z,0.45
2023-03-06T01:30:13.067Z,0.50
2023-03-06T01:32:40.924Z,0.58
2023-03-06T01:35:09.430Z,0.61
2023-03-06T01:37:38.954Z,0.67
2023-03-06T01:40:08.483Z,0.63
2023-03-06T01:42:36.342Z,0.64
2023-03-06T01:45:07.530Z,0.66
2023-03-06T01:47:36.272Z,0.62
2023-03-06T01:50:04.970Z,0.65
2023-03-06T01:52:35.434Z,0.72
2023-03-06T01:55:07.767Z,0.75
2023-03-06T01:57:37.398Z,0.80
2023-03-06T02:00:09.899Z,0.90
2023-03-06T02:02:47.004Z,0.98
2023-03-06T02:05:14.877Z,1.06
2023-03-06T02:07:43.695Z,1.03
2023-03-06T02:10:17.661Z,0.96
2023-03-06T02:12:46.339Z,1.03
2023-03-06T02:15:16.662Z,1.02
2023-03-06T02:17:46.193Z,1.07
2023-03-06T02:20:17.832Z,1.06
2023-03-06T02:22:51.198Z,1.10
2023-03-06T02:25:34.011Z,1.18
2023-03-06T02:28:02.286Z,1.23
2023-03-06T02:30:30.690Z,1.19
2023-03-06T02:32:58.527Z,1.18
2023-03-06T02:35:27.782Z,1.15
2023-03-06T02:37:57.090Z,1.25
2023-03-06T02:40:25.797Z,1.22
2023-03-06T02:42:58.019Z,1.24
2023-03-06T02:45:31.523Z,1.32
2023-03-06T02:47:59.385Z,1.34
2023-03-06T02:50:27.148Z,1.35
2023-03-06T02:52:55.013Z,1.38
2023-03-06T02:55:22.878Z,1.42
2023-03-06T02:57:50.765Z,1.39
2023-03-06T03:00:22.046Z,1.43
2023-03-06T03:02:50.019Z,1.44
2023-03-06T03:05:17.981Z,1.51
2023-03-06T03:07:49.859Z,1.54
2023-03-06T03:10:18.208Z,1.59
2023-03-06T03:12:46.695Z,1.60
2023-03-06T03:15:15.121Z,1.60
2023-03-06T03:17:44.359Z,1.56
2023-03-06T03:20:15.504Z,1.61
2023-03-06T03:22:43.357Z,1.62
2023-03-06T03:25:11.966Z,1.68
2023-03-06T03:27:39.753Z,1.69
2023-03-06T03:30:09.997Z,1.68
2023-03-06T03:32:38.622Z,1.72
2023-03-06T03:35:09.858Z,1.76
2023-03-06T03:37:38.007Z,1.77
2023-03-06T03:40:07.851Z,1.85
2023-03-06T03:42:35.820Z,1.84
2023-03-06T03:45:04.239Z,1.88
2023-03-06T03:47:32.146Z,1.92
2023-03-06T03:50:01.190Z,1.95
2023-03-06T03:52:30.662Z,1.99
2023-03-06T03:54:58.591Z,1.98
2023-03-06T03:57:28.046Z,1.96
2023-03-06T03:59:57.352Z,1.96
2023-03-06T04:02:41.610Z,1.98
2023-03-06T04:05:21.651Z,1.96
2023-03-06T04:07:51.040Z,1.98
2023-03-06T04:10:20.216Z,2.00
2023-03-06T04:12:48.077Z,1.98
2023-03-06T04:15:16.335Z,1.96
2023-03-06T04:17:46.956Z,1.89
2023-03-06T04:20:18.862Z,1.84
2023-03-06T04:22:48.088Z,1.83
2023-03-06T04:25:18.759Z,1.73
2023-03-06T04:27:46.902Z,1.73
2023-03-06T04:30:15.235Z,1.74
2023-03-06T04:32:43.206Z,1.58
2023-03-06T04:35:11.337Z,1.52
2023-03-06T04:37:48.595Z,1.49
2023-03-06T04:40:20.320Z,1.45
2023-03-06T04:42:48.435Z,1.45
2023-03-06T04:45:16.853Z,1.36
2023-03-06T04:47:44.676Z,1.37
2023-03-06T04:50:12.899Z,1.35
2023-03-06T04:52:41.350Z,1.31
2023-03-06T04:55:11.023Z,1.36
2023-03-06T04:57:41.652Z,1.24
2023-03-06T05:00:13.091Z,1.27
2023-03-06T05:02:42.455Z,1.33
2023-03-06T05:05:13.257Z,1.34
2023-03-06T05:07:41.192Z,1.27
2023-03-06T05:10:13.724Z,1.28
2023-03-06T05:12:42.930Z,1.26
2023-03-06T05:15:12.817Z,1.19
2023-03-06T05:17:40.718Z,1.26
2023-03-06T05:20:10.615Z,1.25
2023-03-06T05:22:38.506Z,1.25
2023-03-06T05:25:07.369Z,1.25
2023-03-06T05:27:35.663Z,1.25
2023-03-06T05:30:05.643Z,1.37
2023-03-06T05:32:35.562Z,1.21
2023-03-06T05:35:03.886Z,1.15
2023-03-06T05:37:31.804Z,1.13
2023-03-06T05:39:59.767Z,1.19
2023-03-06T05:42:28.776Z,1.06
2023-03-06T05:44:56.584Z,1.09
2023-03-06T05:47:25.720Z,1.10
2023-03-06T05:49:53.514Z,1.02
2023-03-06T05:52:21.312Z,1.07
2023-03-06T05:54:51.096Z,1.04
2023-03-06T05:57:20.243Z,1.12
2023-03-06T05:59:48.224Z,1.01
2023-03-06T06:02:16.598Z,1.08
2023-03-06T06:04:45.945Z,1.03
2023-03-06T06:07:14.780Z,1.07
2023-03-06T06:09:43.375Z,1.03
2023-03-06T06:12:11.188Z,1.09
2023-03-06T06:14:39.027Z,0.96
2023-03-06T06:17:07.029Z,0.94
2023-03-06T06:19:34.856Z,1.01
2023-03-06T06:22:04.173Z,1.04
2023-03-06T06:24:32.860Z,1.07
2023-03-06T06:27:03.391Z,1.03
2023-03-06T06:29:31.917Z,0.99
2023-03-06T06:32:00.160Z,1.03
2023-03-06T06:34:29.031Z,0.99
2023-03-06T06:36:56.959Z,0.96
2023-03-06T06:39:26.310Z,1.00
2023-03-06T06:42:26.148Z,1.03
2023-03-06T06:44:41.802Z,1.02
2023-03-06T06:47:22.434Z,1.06
2023-03-06T06:49:52.774Z,1.11
2023-03-06T06:52:20.754Z,1.10
2023-03-06T06:54:50.096Z,1.02
2023-03-06T06:57:18.189Z,1.05
2023-03-06T06:59:45.982Z,0.95
2023-03-06T07:02:14.099Z,0.85
2023-03-06T07:04:56.224Z,0.93
2023-03-06T07:07:30.188Z,0.98
2023-03-06T07:09:59.289Z,0.93
2023-03-06T07:12:27.152Z,0.81
2023-03-06T07:14:54.921Z,0.96
2023-03-06T07:17:22.674Z,0.93
2023-03-06T07:19:50.577Z,0.92
2023-03-06T07:22:18.414Z,1.02
2023-03-06T07:28:54.036Z,0.90
2023-03-06T07:31:23.169Z,1.01
2023-03-06T07:33:51.508Z,1.04
2023-03-06T07:36:19.551Z,1.08
2023-03-06T07:38:47.445Z,1.02
2023-03-06T07:41:16.467Z,1.02
2023-03-06T07:43:45.395Z,1.15
2023-03-06T07:46:16.842Z,1.14
2023-03-06T07:48:45.447Z,1.05
2023-03-06T07:51:15.974Z,1.04
2023-03-06T07:53:43.994Z,1.17
2023-03-06T07:56:12.194Z,1.30
2023-03-06T07:58:41.469Z,1.20
2023-03-06T08:01:13.733Z,1.28
2023-03-06T08:03:43.086Z,1.46
2023-03-06T08:06:12.504Z,1.41
2023-03-06T08:08:41.740Z,1.53
2023-03-06T08:11:10.801Z,1.51
2023-03-06T08:13:39.494Z,1.57
2023-03-06T08:16:08.461Z,1.59
2023-03-06T08:18:36.530Z,1.45
2023-03-06T08:21:07.282Z,1.44
2023-03-06T08:23:35.781Z,1.50
2023-03-06T08:26:05.475Z,1.38
2023-03-06T08:28:33.723Z,1.63
2023-03-06T08:31:09.774Z,1.72
2023-03-06T08:33:37.742Z,1.63
2023-03-06T08:36:07.473Z,1.58
2023-03-06T08:38:35.239Z,1.54
2023-03-06T08:41:03.046Z,1.54
2023-03-06T08:43:30.873Z,1.57
2023-03-06T08:45:59.829Z,1.71
2023-03-06T08:48:27.758Z,1.60
2023-03-06T08:50:55.819Z,1.52
2023-03-06T08:53:40.479Z,1.65
2023-03-06T08:56:16.178Z,1.50
2023-03-06T08:58:43.995Z,1.49
2023-03-06T09:01:14.798Z,1.69
2023-03-06T09:03:42.594Z,1.74
2023-03-06T09:06:10.666Z,1.74
2023-03-06T09:08:42.990Z,1.85
2023-03-06T09:11:11.095Z,1.83
2023-03-06T09:13:39.028Z,1.63
2023-03-06T09:16:08.403Z,1.89
2023-03-06T09:18:36.198Z,1.85
2023-03-06T09:21:04.421Z,1.96
2023-03-06T09:23:32.536Z,2.09
2023-03-06T09:26:02.560Z,2.16
2023-03-06T09:28:30.569Z,1.96
2023-03-06T09:30:59.735Z,1.79
2023-03-06T09:33:28.678Z,1.67
2023-03-06T09:35:57.635Z,1.81
2023-03-06T09:38:27.180Z,1.94
2023-03-06T09:41:09.835Z,1.94
2023-03-06T09:43:39.638Z,2.01
2023-03-06T09:46:10.664Z,2.07
2023-03-06T09:48:43.171Z,1.94
2023-03-06T09:51:14.454Z,1.71
2023-03-06T09:53:57.461Z,1.80
2023-03-06T09:56:31.011Z,2.00
2023-03-06T09:59:07.163Z,2.20
2023-03-06T10:01:37.189Z,2.19
2023-03-06T10:04:11.069Z,2.17
2023-03-06T10:06:46.190Z,2.30
2023-03-06T10:09:17.012Z,2.35
2023-03-06T10:11:49.326Z,2.15
2023-03-06T10:14:22.313Z,2.04
2023-03-06T10:16:50.249Z,2.14
2023-03-06T10:19:19.718Z,2.00
2023-03-06T10:21:55.156Z,1.97
2023-03-06T10:24:34.705Z,1.70
2023-03-06T10:27:17.091Z,1.67
2023-03-06T10:30:02.076Z,1.81
2023-03-06T10:32:47.480Z,1.93
2023-03-06T10:35:19.101Z,1.93
2023-03-06T10:37:46.983Z,1.85
2023-03-06T10:40:17.998Z,2.02
2023-03-06T10:42:52.117Z,1.98
2023-03-06T10:45:24.012Z,1.99
2023-03-06T10:47:51.798Z,1.78
2023-03-06T10:50:25.137Z,1.85
2023-03-06T10:53:01.902Z,1.95
2023-03-06T10:55:31.438Z,1.90
2023-03-06T10:58:18.363Z,1.95
2023-03-06T11:00:46.212Z,1.91
2023-03-06T11:03:19.076Z,1.94
2023-03-06T11:06:04.782Z,2.17
2023-03-06T11:08:32.978Z,2.10
2023-03-06T11:11:02.845Z,1.99
2023-03-06T11:13:33.640Z,2.17
2023-03-06T11:16:05.035Z,2.30
2023-03-06T11:18:37.277Z,2.07
2023-03-06T11:21:09.036Z,2.17
2023-03-06T11:23:42.695Z,2.12
2023-03-06T11:26:30.369Z,2.13
2023-03-06T11:29:14.510Z,2.27
2023-03-06T11:31:46.984Z,2.15
2023-03-06T11:34:19.772Z,2.07
2023-03-06T11:36:50.849Z,2.31
2023-03-06T11:39:25.698Z,2.38
2023-03-06T11:41:58.907Z,2.43
2023-03-06T11:44:36.092Z,2.29
2023-03-06T11:47:10.142Z,2.54
2023-03-06T11:49:41.745Z,2.65
2023-03-06T11:52:16.087Z,2.41
2023-03-06T11:54:43.850Z,2.59
2023-03-06T11:57:17.114Z,2.33
2023-03-06T11:59:55.344Z,2.41
2023-03-06T12:02:34.403Z,2.48
2023-03-06T12:05:10.765Z,2.55
2023-03-06T12:07:46.107Z,2.82
2023-03-06T12:10:18.882Z,3.01
2023-03-06T12:12:59.759Z,3.18
2023-03-06T12:15:43.813Z,3.07
2023-03-06T12:18:23.075Z,3.05
2023-03-06T12:20:59.854Z,3.11
2023-03-06T12:23:43.899Z,3.16
2023-03-06T12:26:25.181Z,3.17
2023-03-06T12:29:12.621Z,3.14
2023-03-06T12:31:49.401Z,2.99
2023-03-06T12:34:29.114Z,3.37
2023-03-06T12:37:04.399Z,3.56
2023-03-06T12:39:43.196Z,3.16
2023-03-06T12:42:24.528Z,3.28
2023-03-06T12:45:23.253Z,3.46
2023-03-06T12:47:56.341Z,3.46
2023-03-06T12:50:27.332Z,3.61
2023-03-06T12:52:56.594Z,3.78
2023-03-06T12:55:26.055Z,3.16
2023-03-06T12:57:54.127Z,3.18
2023-03-06T13:01:04.880Z,3.54
2023-03-06T13:03:44.766Z,3.80
2023-03-06T13:06:51.669Z,3.85
2023-03-06T13:09:21.437Z,4.16
2023-03-06T13:12:09.368Z,3.79
2023-03-06T13:14:57.276Z,3.68
2023-03-06T13:17:37.253Z,3.72
2023-03-06T13:20:44.593Z,3.55
2023-03-06T13:24:01.122Z,4.06
2023-03-06T13:26:52.502Z,4.26
2023-03-06T13:29:59.947Z,4.74
2023-03-06T13:32:33.224Z,4.54
2023-03-06T13:35:01.181Z,4.32
2023-03-06T13:37:53.881Z,4.56
2023-03-06T13:40:33.425Z,5.02
2023-03-06T13:43:18.110Z,5.56
2023-03-06T13:45:47.501Z,5.21
2023-03-06T13:48:43.213Z,4.98
2023-03-06T13:51:17.478Z,4.83
2023-03-06T13:54:21.415Z,4.49
2023-03-06T13:57:04.562Z,3.95
2023-03-06T14:00:12.169Z,4.69
2023-03-06T14:03:09.668Z,4.60
2023-03-06T14:05:43.278Z,4.12
2023-03-06T14:08:13.825Z,4.50
2023-03-06T14:10:42.018Z,4.66
2023-03-06T14:13:17.145Z,4.67
2023-03-06T14:15:48.856Z,4.16
2023-03-06T14:18:25.145Z,3.93
2023-03-06T14:20:56.408Z,3.90
2023-03-06T14:23:27.299Z,3.93
2023-03-06T14:26:06.386Z,4.00
2023-03-06T14:28:35.654Z,3.97
2023-03-06T14:31:06.033Z,3.94
2023-03-06T14:33:41.100Z,4.06
2023-03-06T14:36:14.726Z,4.19
2023-03-06T14:38:45.393Z,4.49
2023-03-06T14:41:14.264Z,4.45
2023-03-06T14:43:42.242Z,4.69
2023-03-06T14:46:19.971Z,4.47
2023-03-06T14:48:50.057Z,4.38
2023-03-06T14:51:19.560Z,3.98
2023-03-06T14:53:48.798Z,4.07
2023-03-06T14:56:19.428Z,4.29
2023-03-06T14:58:55.224Z,4.94
2023-03-06T15:01:30.270Z,4.96
2023-03-06T15:04:02.705Z,4.69
2023-03-06T15:06:34.399Z,4.30
2023-03-06T15:09:07.469Z,4.17
2023-03-06T15:11:56.493Z,4.49
2023-03-06T15:14:31.175Z,4.18
2023-03-06T15:17:21.028Z,4.67
2023-03-06T15:19:51.502Z,4.24
2023-03-06T15:22:31.336Z,3.91
2023-03-06T15:25:26.928Z,4.16
2023-03-06T15:27:56.898Z,3.97
2023-03-06T15:30:27.967Z,4.41
2023-03-06T15:33:24.978Z,4.61
2023-03-06T15:35:56.951Z,4.34
2023-03-06T15:38:27.507Z,4.10
2023-03-06T15:40:57.028Z,4.07
2023-03-06T15:43:25.797Z,4.03
2023-03-06T15:45:59.232Z,3.83
2023-03-06T15:48:27.465Z,3.73
2023-03-06T15:50:57.064Z,3.88
2023-03-06T15:53:25.002Z,3.92
2023-03-06T15:55:53.282Z,4.07
2023-03-06T15:58:26.630Z,4.00
2023-03-06T16:00:54.588Z,3.89
2023-03-06T16:03:22.595Z,3.78
2023-03-06T16:05:50.453Z,3.49
2023-03-06T16:08:19.772Z,3.41
2023-03-06T16:10:47.863Z,3.09
2023-03-06T16:13:17.666Z,3.25
2023-03-06T16:15:48.487Z,3.19
2023-03-06T16:18:16.425Z,3.13
2023-03-06T16:20:44.263Z,3.12
2023-03-06T16:23:12.406Z,2.97
2023-03-06T16:25:43.045Z,2.90
2023-03-06T16:28:12.430Z,2.89
2023-03-06T16:30:40.401Z,2.86
2023-03-06T16:33:10.301Z,2.76
2023-03-06T16:35:38.240Z,2.71
2023-03-06T16:38:07.079Z,2.77
2023-03-06T16:40:41.111Z,2.72
2023-03-06T16:43:15.534Z,2.79
2023-03-06T16:45:44.003Z,2.63
2023-03-06T16:48:15.165Z,2.44
2023-03-06T16:50:43.052Z,2.56
2023-03-06T16:53:10.908Z,2.44
2023-03-06T16:55:38.756Z,2.43
2023-03-06T16:58:08.579Z,2.41
2023-03-06T17:00:37.796Z,2.38
2023-03-06T17:03:05.614Z,2.39
2023-03-06T17:05:35.070Z,2.37
2023-03-06T17:08:03.606Z,2.31
2023-03-06T17:10:31.934Z,2.26
2023-03-06T17:13:00.645Z,2.25
2023-03-06T17:15:28.662Z,2.19
2023-03-06T17:17:58.848Z,2.23
2023-03-06T17:20:26.717Z,2.23
2023-03-06T17:22:54.855Z,2.18
2023-03-06T17:25:22.798Z,2.14
2023-03-06T17:27:50.886Z,2.08
2023-03-06T17:30:18.829Z,2.03
2023-03-06T17:32:47.404Z,2.02
2023-03-06T17:35:16.924Z,1.97
2023-03-06T17:37:44.798Z,1.89
2023-03-06T17:40:15.548Z,1.85
2023-03-06T17:42:43.593Z,1.89
2023-03-06T17:45:12.219Z,1.83
2023-03-06T17:47:40.238Z,1.77
2023-03-06T17:50:08.688Z,1.75
2023-03-06T17:52:38.900Z,1.84
2023-03-06T17:55:08.013Z,1.72
2023-03-06T17:57:35.897Z,1.72
2023-03-06T18:00:05.793Z,1.60
2023-03-06T18:02:40.649Z,1.52
2023-03-06T18:05:10.052Z,1.52
2023-03-06T18:07:40.060Z,1.46
2023-03-06T18:10:08.588Z,1.47
2023-03-06T18:12:36.387Z,1.51
2023-03-06T18:15:05.536Z,1.46
2023-03-06T18:17:33.730Z,1.43
2023-03-06T18:20:01.664Z,1.17
2023-03-06T18:22:29.588Z,1.13
2023-03-06T18:24:58.821Z,1.09
2023-03-06T18:27:26.735Z,1.10
2023-03-06T18:29:55.521Z,0.99
2023-03-06T18:32:23.340Z,0.95
2023-03-06T18:34:51.627Z,0.86
2023-03-06T18:37:19.833Z,0.88
2023-03-06T18:39:47.834Z,0.94
2023-03-06T18:42:17.032Z,0.98
2023-03-06T18:44:47.639Z,0.95
2023-03-06T18:47:15.797Z,0.85
2023-03-06T18:49:44.878Z,0.78
2023-03-06T18:52:13.151Z,0.67
2023-03-06T18:54:41.043Z,0.77
2023-03-06T18:57:11.125Z,0.70
2023-03-06T18:59:40.301Z,0.65
2023-03-06T19:02:08.495Z,0.65
2023-03-06T19:04:37.760Z,0.69
2023-03-06T19:07:05.810Z,0.57
2023-03-06T19:09:33.612Z,0.59
2023-03-06T19:12:03.375Z,0.54
2023-03-06T19:14:31.336Z,0.62
2023-03-06T19:17:00.514Z,0.58
2023-03-06T19:19:29.261Z,0.51
2023-03-06T19:21:58.500Z,0.53
2023-03-06T19:24:26.628Z,0.52
2023-03-06T19:26:54.366Z,0.46
2023-03-06T19:29:22.248Z,0.50
2023-03-06T19:31:50.856Z,0.38
2023-03-06T19:34:20.236Z,0.30
2023-03-06T19:36:50.907Z,0.29
2023-03-06T19:39:18.825Z,0.31
2023-03-06T19:41:47.426Z,0.40
2023-03-06T19:44:16.143Z,0.34
2023-03-06T19:46:44.382Z,0.33
2023-03-06T19:49:16.578Z,0.34
2023-03-06T19:51:45.733Z,0.41
2023-03-06T19:54:14.026Z,0.45
2023-03-06T19:56:41.801Z,0.41
2023-03-06T19:59:09.613Z,0.38
2023-03-06T20:01:38.466Z,0.31
2023-03-06T20:04:06.410Z,0.30
2023-03-06T20:06:36.624Z,0.28
2023-03-06T20:09:08.018Z,0.30
2023-03-06T20:11:35.936Z,0.27
2023-03-06T20:14:05.913Z,0.35
2023-03-06T20:16:34.594Z,0.32
2023-03-06T20:19:02.905Z,0.28
2023-03-06T20:21:32.336Z,0.26
2023-03-06T20:24:00.186Z,0.24
2023-03-06T20:26:31.114Z,0.24
2023-03-06T20:28:59.116Z,0.23
2023-03-06T20:31:28.590Z,0.18
2023-03-06T20:33:58.393Z,0.18
2023-03-06T20:36:28.740Z,0.17
2023-03-06T20:38:56.917Z,0.04
2023-03-06T20:41:26.108Z,0.00
2023-03-06T20:43:55.751Z,0.01
2023-03-06T20:46:24.338Z,0.05
2023-03-06T20:48:54.051Z,0.08
2023-03-06T20:51:24.184Z,0.05
2023-03-06T20:53:53.940Z,-0.05
2023-03-06T20:56:24.109Z,0.03
2023-03-06T20:58:51.914Z,-0.04
2023-03-06T21:01:22.510Z,-0.07
2023-03-06T21:03:50.346Z,-0.07
2023-03-06T21:06:18.660Z,-0.05
2023-03-06T21:08:46.574Z,-0.11
2023-03-06T21:11:14.823Z,-0.03
2023-03-06T21:13:42.716Z,-0.06
2023-03-06T21:16:12.614Z,-0.14
2023-03-06T21:18:41.810Z,-0.19
2023-03-06T21:21:11.552Z,-0.16
2023-03-06T21:23:39.954Z,-0.11
2023-03-06T21:26:07.905Z,-0.17
2023-03-06T21:28:35.746Z,-0.15
2023-03-06T21:31:04.107Z,-0.13
2023-03-06T21:33:31.954Z,-0.19
2023-03-06T21:36:01.201Z,-0.22
2023-03-06T21:38:29.139Z,-0.09
2023-03-06T21:40:57.119Z,-0.19
2023-03-06T21:43:24.858Z,-0.21
2023-03-06T21:45:57.344Z,-0.25
2023-03-06T21:48:25.318Z,-0.29
2023-03-06T21:50:53.139Z,-0.33
2023-03-06T21:53:22.328Z,-0.34
2023-03-06T21:55:50.057Z,-0.35
2023-03-06T21:58:17.792Z,-0.34
2023-03-06T22:00:45.717Z,-0.32
2023-03-06T22:03:13.496Z,-0.31
2023-03-06T22:05:41.782Z,-0.25
2023-03-06T22:08:09.637Z,-0.23
2023-03-06T22:10:40.784Z,-0.23
2023-03-06T22:13:08.595Z,-0.27
2023-03-06T22:15:36.524Z,-0.33
2023-03-06T22:18:04.547Z,-0.35
2023-03-06T22:20:32.338Z,-0.39
2023-03-06T22:23:00.189Z,-0.42
2023-03-06T22:25:28.018Z,-0.43
2023-03-06T22:27:57.166Z,-0.45
2023-03-06T22:30:24.994Z,-0.38
2023-03-06T22:32:53.613Z,-0.37
2023-03-06T22:35:21.422Z,-0.34
2023-03-06T22:37:49.662Z,-0.37
2023-03-06T22:40:17.969Z,-0.40
2023-03-06T22:42:45.813Z,-0.38
2023-03-06T22:45:15.047Z,-0.45
2023-03-06T22:47:43.090Z,-0.46
2023-03-06T22:50:12.174Z,-0.43
2023-03-06T22:52:40.072Z,-0.53
2023-03-06T22:55:08.721Z,-0.55
2023-03-06T22:57:36.537Z,-0.59
2023-03-06T23:00:05.194Z,-0.62
2023-03-06T23:02:35.305Z,-0.67
2023-03-06T23:05:03.663Z,-0.70
2023-03-06T23:07:31.425Z,-0.74
2023-03-06T23:10:02.126Z,-0.77
2023-03-06T23:12:48.842Z,-0.82
2023-03-06T23:15:36.804Z,-0.89
2023-03-06T23:18:26.900Z,-0.94
2023-03-06T23:21:15.134Z,-0.98
2023-03-06T23:24:02.377Z,-1.02
2023-03-06T23:26:31.415Z,-1.08
2023-03-06T23:28:59.250Z,-1.12
2023-03-06T23:31:29.409Z,-1.05
2023-03-06T23:34:00.728Z,-0.98
2023-03-06T23:36:29.121Z,-0.94
2023-03-06T23:38:56.945Z,-0.89
2023-03-06T23:41:24.898Z,-0.88
2023-03-06T23:43:55.052Z,-1.01
2023-03-06T23:46:23.819Z,-0.89
2023-03-06T23:48:51.660Z,-0.86
2023-03-06T23:51:22.632Z,-0.93
2023-03-06T23:53:55.122Z,-0.82
2023-03-06T23:56:23.092Z,-0.88
2023-03-06T23:58:53.056Z,-0.80
